Terminal Aerodrome Forecast
Issued by NWS

Home | Current Version | Previous Version | Text Only | Print | Product List | Glossary Off
Versions: 1 2 3 4 5 6 7 8 9 10 11 12 13 14 15 16

000
FTUS43 KIWX 020718 AAA
TAFSBN
TAF AMD
KSBN 020718Z 0207/0306 06008KT P6SM OVC035
     FM020900 03007KT 4SM BR OVC005
     FM021500 04008KT P6SM OVC015
     FM021900 02010KT P6SM OVC025
     FM030000 01006KT P6SM BKN050=

USA.gov is the U.S. government's official web portal to all federal, state and local government web resources and services.